Time;durP1;ratioP1;P1;durP2;ratioP2;P2;SDS_P1;SDS_P2;PMS_P1;PMS_P2;Temp;Humidity;BMP_temperature;BMP_pressure;BME280_temperature;BME280_humidity;BME280_pressure;Samples;Min_cycle;Max_cycle;Signal;HPM_P1;HPM_P2
2023/04/20 00:01:53;;;;;;;3.10;2.60;;;;;;;;;;4999188;28;20223;-35
2023/04/20 00:04:21;;;;;;;2.40;2.17;;;;;;;;;;5002231;28;20239;-39
2023/04/20 00:06:48;;;;;;;2.60;2.40;;;;;;;;;;5005892;28;20208;-37
2023/04/20 00:09:15;;;;;;;4.63;2.40;;;;;;;;;;4997645;28;20224;-36
2023/04/20 00:11:44;;;;;;;3.10;2.70;;;;;;;;;;4984570;28;20247;-33
2023/04/20 00:14:11;;;;;;;2.40;2.20;;;;;;;;;;4988825;28;20234;-33
2023/04/20 00:16:38;;;;;;;2.27;2.10;;;;;;;;;;4990566;28;20208;-34
2023/04/20 00:19:06;;;;;;;2.50;2.30;;;;;;;;;;4989549;28;20238;-34
2023/04/20 00:21:33;;;;;;;2.77;2.50;;;;;;;;;;4994274;28;20215;-33
2023/04/20 00:24:00;;;;;;;2.57;2.20;;;;;;;;;;4994097;28;20224;-34
2023/04/20 00:26:27;;;;;;;2.93;2.47;;;;;;;;;;4990145;28;20208;-36
2023/04/20 00:28:56;;;;;;;2.27;2.07;;;;;;;;;;4993182;28;20200;-33
2023/04/20 00:31:23;;;;;;;2.27;2.07;;;;;;;;;;4988237;28;20214;-32
2023/04/20 00:33:50;;;;;;;2.90;2.00;;;;;;;;;;4986065;28;20318;-37
2023/04/20 00:36:17;;;;;;;3.30;2.13;;;;;;;;;;4992816;28;20210;-34
2023/04/20 00:38:44;;;;;;;3.80;2.30;;;;;;;;;;4985375;28;20228;-31
2023/04/20 00:41:11;;;;;;;2.43;2.23;;;;;;;;;;4978166;28;20204;-34
2023/04/20 00:43:39;;;;;;;2.93;2.40;;;;;;;;;;4992700;28;20234;-34
2023/04/20 00:46:07;;;;;;;2.97;2.70;;;;;;;;;;4991298;28;20218;-37
2023/04/20 00:48:34;;;;;;;4.23;2.47;;;;;;;;;;4990090;28;20211;-37
2023/04/20 00:51:02;;;;;;;2.50;2.30;;;;;;;;;;4993315;28;20291;-40
2023/04/20 00:53:29;;;;;;;2.70;2.50;;;;;;;;;;4993417;28;20619;-32
2023/04/20 00:55:56;;;;;;;3.57;2.50;;;;;;;;;;4991196;28;20218;-33
2023/04/20 00:58:24;;;;;;;2.80;2.50;;;;;;;;;;4981070;28;20211;-39
2023/04/20 01:00:51;;;;;;;2.60;1.97;;;;;;;;;;4985743;28;20635;-35
2023/04/20 01:03:21;;;;;;;3.40;2.27;;;;;;;;;;4979075;28;20315;-37
2023/04/20 01:05:48;;;;;;;5.53;2.70;;;;;;;;;;4989158;28;20210;-36
2023/04/20 01:08:15;;;;;;;3.80;3.10;;;;;;;;;;4991319;28;20214;-34
2023/04/20 01:10:42;;;;;;;2.67;2.23;;;;;;;;;;4985334;28;20216;-36
2023/04/20 01:13:10;;;;;;;3.37;2.60;;;;;;;;;;4989578;28;20299;-32
2023/04/20 01:15:37;;;;;;;2.80;2.53;;;;;;;;;;4992711;28;20230;-35
2023/04/20 01:18:04;;;;;;;3.67;2.20;;;;;;;;;;4986727;28;20200;-37
2023/04/20 01:20:33;;;;;;;2.93;2.60;;;;;;;;;;4991340;28;20259;-41
2023/04/20 01:23:02;;;;;;;5.17;2.73;;;;;;;;;;4991984;28;20238;-31
2023/04/20 01:25:29;;;;;;;2.37;2.17;;;;;;;;;;4987041;28;20222;-35
2023/04/20 01:27:56;;;;;;;3.00;2.30;;;;;;;;;;4987996;28;20326;-34
2023/04/20 01:30:23;;;;;;;3.63;2.80;;;;;;;;;;4992289;28;20210;-37
2023/04/20 01:32:50;;;;;;;2.60;2.40;;;;;;;;;;4986028;28;20280;-35
2023/04/20 01:35:17;;;;;;;3.23;2.50;;;;;;;;;;4984967;28;20212;-37
2023/04/20 01:37:45;;;;;;;3.07;2.47;;;;;;;;;;4991102;28;20212;-30
2023/04/20 01:40:14;;;;;;;3.80;2.70;;;;;;;;;;4992377;28;20228;-37
2023/04/20 01:42:41;;;;;;;4.23;2.27;;;;;;;;;;4991948;28;20218;-32
2023/04/20 01:45:09;;;;;;;3.70;2.50;;;;;;;;;;4986889;28;20298;-32
2023/04/20 01:47:36;;;;;;;2.50;2.30;;;;;;;;;;4982700;28;20299;-33
2023/04/20 01:50:03;;;;;;;3.97;2.67;;;;;;;;;;4991664;28;20225;-32
2023/04/20 01:52:30;;;;;;;3.17;2.47;;;;;;;;;;4991642;28;20205;-30
2023/04/20 01:54:57;;;;;;;3.47;2.90;;;;;;;;;;4982459;28;20242;-31
2023/04/20 01:57:26;;;;;;;3.23;2.47;;;;;;;;;;4991718;28;20204;-36
2023/04/20 01:59:53;;;;;;;3.80;3.13;;;;;;;;;;4983224;28;20234;-34
2023/04/20 02:02:20;;;;;;;3.13;2.83;;;;;;;;;;4978291;28;20221;-34
2023/04/20 02:04:47;;;;;;;4.80;2.60;;;;;;;;;;4990585;28;20318;-37
2023/04/20 02:07:14;;;;;;;4.17;2.73;;;;;;;;;;4991582;28;20206;-34
2023/04/20 02:09:42;;;;;;;3.37;2.60;;;;;;;;;;4987687;28;20258;-32
2023/04/20 02:12:09;;;;;;;2.90;2.53;;;;;;;;;;4984732;28;20208;-34
2023/04/20 02:14:37;;;;;;;2.60;2.40;;;;;;;;;;4989084;28;20236;-40
2023/04/20 02:17:04;;;;;;;3.07;2.77;;;;;;;;;;4981612;28;20209;-36
2023/04/20 02:19:32;;;;;;;2.57;2.37;;;;;;;;;;4985420;28;20317;-35
2023/04/20 02:22:00;;;;;;;2.97;2.63;;;;;;;;;;4991171;28;20200;-37
2023/04/20 02:24:27;;;;;;;5.83;2.57;;;;;;;;;;4984529;28;20311;-38
2023/04/20 02:26:54;;;;;;;2.70;2.20;;;;;;;;;;4982921;28;20208;-33
2023/04/20 02:29:22;;;;;;;3.20;2.57;;;;;;;;;;4990894;28;20282;-37
2023/04/20 02:31:50;;;;;;;3.03;2.80;;;;;;;;;;4979176;28;20204;-30
2023/04/20 02:34:17;;;;;;;2.50;2.30;;;;;;;;;;4991439;28;20234;-40
2023/04/20 02:36:45;;;;;;;3.33;2.50;;;;;;;;;;4993859;28;20208;-36
2023/04/20 02:39:12;;;;;;;3.43;2.53;;;;;;;;;;4993803;28;20227;-36
2023/04/20 02:41:39;;;;;;;2.67;2.13;;;;;;;;;;4987307;28;20211;-32
2023/04/20 02:44:06;;;;;;;6.50;2.70;;;;;;;;;;4990642;28;20327;-32
2023/04/20 02:46:33;;;;;;;2.80;2.27;;;;;;;;;;4985472;28;20205;-35
2023/04/20 02:49:02;;;;;;;2.80;2.60;;;;;;;;;;4987394;28;20214;-33
2023/04/20 02:51:30;;;;;;;2.77;2.53;;;;;;;;;;4991526;28;20219;-34
2023/04/20 02:53:57;;;;;;;2.93;2.63;;;;;;;;;;4991073;28;20299;-33
2023/04/20 02:56:25;;;;;;;4.63;2.53;;;;;;;;;;4977542;28;20212;-41
2023/04/20 02:58:52;;;;;;;2.60;2.40;;;;;;;;;;4984600;28;20286;-38
2023/04/20 03:01:19;;;;;;;3.40;2.93;;;;;;;;;;4985544;28;20224;-37
2023/04/20 03:03:46;;;;;;;2.93;2.70;;;;;;;;;;4982833;28;20259;-36
2023/04/20 03:06:15;;;;;;;2.83;2.63;;;;;;;;;;4990725;28;20211;-32
2023/04/20 03:08:42;;;;;;;2.80;2.43;;;;;;;;;;4990770;28;20235;-33
2023/04/20 03:11:09;;;;;;;3.93;2.77;;;;;;;;;;4983368;28;20208;-38
2023/04/20 03:13:36;;;;;;;3.57;2.40;;;;;;;;;;4981026;28;20230;-37
2023/04/20 03:16:03;;;;;;;3.10;2.40;;;;;;;;;;4988741;28;20208;-35
2023/04/20 03:18:31;;;;;;;3.27;2.80;;;;;;;;;;4979827;28;20204;-36
2023/04/20 03:20:58;;;;;;;2.80;2.43;;;;;;;;;;4990860;28;20234;-34
2023/04/20 03:23:26;;;;;;;2.87;2.53;;;;;;;;;;4990713;28;20227;-38
2023/04/20 03:25:53;;;;;;;3.03;2.83;;;;;;;;;;4987144;28;20207;-36
2023/04/20 03:28:21;;;;;;;3.13;2.50;;;;;;;;;;4989619;28;20215;-37
2023/04/20 03:30:48;;;;;;;5.13;2.70;;;;;;;;;;4990858;28;20200;-33
2023/04/20 03:33:15;;;;;;;3.03;2.80;;;;;;;;;;4977395;28;20224;-38
2023/04/20 03:35:42;;;;;;;3.13;2.83;;;;;;;;;;4989103;28;20292;-38
2023/04/20 03:38:10;;;;;;;3.47;2.50;;;;;;;;;;4991630;28;20236;-39
2023/04/20 03:40:38;;;;;;;2.70;2.50;;;;;;;;;;4986645;28;20228;-38
2023/04/20 03:43:05;;;;;;;2.80;2.50;;;;;;;;;;4988859;28;20227;-36
2023/04/20 03:45:33;;;;;;;4.40;2.90;;;;;;;;;;4991393;28;20208;-35
2023/04/20 03:48:00;;;;;;;2.30;2.10;;;;;;;;;;4980152;28;20300;-39
2023/04/20 03:50:27;;;;;;;2.90;2.43;;;;;;;;;;4994527;28;20196;-33
2023/04/20 03:52:54;;;;;;;2.77;2.20;;;;;;;;;;4994635;28;20208;-36
2023/04/20 03:55:22;;;;;;;5.33;2.80;;;;;;;;;;4985993;28;20263;-34
2023/04/20 03:57:50;;;;;;;4.23;2.60;;;;;;;;;;4994443;28;20211;-34
2023/04/20 04:00:17;;;;;;;2.73;2.50;;;;;;;;;;4987369;28;20255;-37
2023/04/20 04:02:45;;;;;;;2.90;2.53;;;;;;;;;;4984709;28;20200;-37
2023/04/20 04:05:12;;;;;;;4.17;2.60;;;;;;;;;;4992453;28;20216;-37
2023/04/20 04:07:39;;;;;;;6.33;2.80;;;;;;;;;;4994472;28;20275;-33
2023/04/20 04:10:07;;;;;;;5.63;3.10;;;;;;;;;;4991662;28;20267;-36
2023/04/20 04:12:34;;;;;;;4.70;3.10;;;;;;;;;;4984514;28;20230;-33
2023/04/20 04:15:02;;;;;;;3.63;3.07;;;;;;;;;;4992379;28;20218;-36
2023/04/20 04:17:30;;;;;;;3.00;2.80;;;;;;;;;;4987466;28;20211;-35
2023/04/20 04:19:57;;;;;;;3.93;3.03;;;;;;;;;;4992445;28;20220;-31
2023/04/20 04:22:25;;;;;;;3.03;2.57;;;;;;;;;;4993792;28;20206;-31
2023/04/20 04:24:53;;;;;;;3.10;2.83;;;;;;;;;;4990607;28;20227;-36
2023/04/20 04:27:22;;;;;;;3.23;2.50;;;;;;;;;;4990830;28;20263;-32
2023/04/20 04:29:49;;;;;;;2.83;2.53;;;;;;;;;;4982501;28;20201;-37
2023/04/20 04:32:18;;;;;;;4.33;2.73;;;;;;;;;;4977508;28;20228;-36
2023/04/20 04:34:47;;;;;;;2.57;2.33;;;;;;;;;;4989429;28;20507;-39
2023/04/20 04:37:14;;;;;;;6.17;3.03;;;;;;;;;;4994340;28;20258;-34
2023/04/20 04:39:41;;;;;;;4.07;2.70;;;;;;;;;;4994256;28;20232;-33
2023/04/20 04:42:08;;;;;;;3.80;2.53;;;;;;;;;;4990052;28;20223;-37
2023/04/20 04:44:36;;;;;;;3.17;2.87;;;;;;;;;;4994887;28;20224;-39
2023/04/20 04:47:04;;;;;;;3.13;2.83;;;;;;;;;;4985964;28;20209;-31
2023/04/20 04:49:34;;;;;;;3.60;3.30;;;;;;;;;;4991385;28;20232;-39
2023/04/20 04:52:01;;;;;;;2.97;2.63;;;;;;;;;;4994775;28;20231;-35
2023/04/20 04:54:28;;;;;;;4.53;3.47;;;;;;;;;;4987455;28;20227;-35
2023/04/20 04:56:57;;;;;;;4.50;3.07;;;;;;;;;;4995171;28;20211;-33
2023/04/20 04:59:24;;;;;;;3.30;3.00;;;;;;;;;;4995114;28;20299;-38
2023/04/20 05:04:34;;;;;;;4.37;3.23;;;;;;;;;;4974784;28;20232;-28
2023/04/20 05:07:09;;;;;;;5.77;3.53;;;;;;;;;;4968519;28;20298;-27
2023/04/20 05:09:40;;;;;;;3.40;3.10;;;;;;;;;;4960063;28;20206;-30
2023/04/20 05:12:18;;;;;;;3.03;2.73;;;;;;;;;;4969822;28;20288;-27
2023/04/20 05:14:56;;;;;;;4.87;3.30;;;;;;;;;;4975926;28;20251;-28
2023/04/20 05:20:10;;;;;;;3.33;2.73;;;;;;;;;;5094589;23;20290;-41
2023/04/20 05:22:59;;;;;;;3.73;2.60;;;;;;;;;;4937224;29;20222;-39
2023/04/20 05:25:35;;;;;;;4.73;3.10;;;;;;;;;;4930660;29;20217;-36
2023/04/20 05:28:18;;;;;;;3.47;3.13;;;;;;;;;;4929247;29;20213;-36
2023/04/20 05:30:54;;;;;;;4.27;3.57;;;;;;;;;;4938195;29;20233;-38
2023/04/20 05:38:36;;;;;;;6.13;3.70;;;;;;;;;;4936033;29;20210;-37
2023/04/20 05:41:14;;;;;;;4.93;3.70;;;;;;;;;;4928329;29;20313;-38
2023/04/20 05:43:48;;;;;;;3.97;3.40;;;;;;;;;;4936925;29;20336;-32
2023/04/20 05:46:21;;;;;;;5.17;4.13;;;;;;;;;;4936382;29;20217;-37
2023/04/20 05:48:55;;;;;;;4.93;3.30;;;;;;;;;;4931807;29;20210;-36
2023/04/20 05:51:32;;;;;;;4.87;3.30;;;;;;;;;;4928993;29;20206;-39
2023/04/20 05:57:20;;;;;;;4.77;3.40;;;;;;;;;;4925104;29;20490;-37
2023/04/20 06:00:25;;;;;;;6.07;4.50;;;;;;;;;;4936568;29;20285;-37
2023/04/20 06:03:00;;;;;;;3.97;3.57;;;;;;;;;;4929938;29;20293;-36
2023/04/20 06:05:38;;;;;;;5.13;3.87;;;;;;;;;;4936711;29;20205;-38
2023/04/20 06:08:12;;;;;;;4.80;4.03;;;;;;;;;;4935948;29;20217;-37
2023/04/20 06:10:57;;;;;;;7.97;4.67;;;;;;;;;;4929348;29;20225;-37
2023/04/20 06:16:28;;;;;;;6.13;4.10;;;;;;;;;;4927471;29;20246;-36
2023/04/20 06:19:20;;;;;;;4.97;4.30;;;;;;;;;;4932150;29;20209;-38
2023/04/20 06:22:21;;;;;;;8.13;4.40;;;;;;;;;;4935723;29;20229;-32
2023/04/20 06:25:26;;;;;;;5.23;4.53;;;;;;;;;;4931557;29;20261;-36
2023/04/20 06:28:28;;;;;;;5.10;4.10;;;;;;;;;;4933425;29;20213;-33
2023/04/20 06:31:17;;;;;;;6.70;3.53;;;;;;;;;;4936756;29;20210;-36
2023/04/20 06:33:55;;;;;;;5.90;4.17;;;;;;;;;;4932078;29;20230;-34
2023/04/20 06:52:29;;;;;;;;;;;;;;;;;;;;;
2023/04/20 07:00:52;;;;;;;4.33;3.53;;;;;;;;;;4909883;29;20293;-38
2023/04/20 07:06:21;;;;;;;6.70;4.97;;;;;;;;;;4917325;29;20207;-36
2023/04/20 07:09:03;;;;;;;8.80;5.20;;;;;;;;;;4917358;29;20234;-32
2023/04/20 07:11:34;;;;;;;6.60;4.87;;;;;;;;;;4927836;29;20217;-40
2023/04/20 07:14:08;;;;;;;7.30;4.60;;;;;;;;;;4935989;29;20256;-40
2023/04/20 07:19:21;;;;;;;5.47;4.37;;;;;;;;;;4931489;29;20232;-35
2023/04/20 07:21:58;;;;;;;7.23;4.30;;;;;;;;;;4939862;29;20313;-38
2023/04/20 07:49:28;;;;;;;5.30;4.37;;;;;;;;;;4931746;29;20209;-36
2023/04/20 07:52:07;;;;;;;6.40;4.57;;;;;;;;;;4932678;29;20198;-36
2023/04/20 07:54:38;;;;;;;6.50;4.90;;;;;;;;;;4940511;29;20411;-40
2023/04/20 08:30:14;;;;;;;8.53;4.90;;;;;;;;;;4831504;29;20217;-28
2023/04/20 08:45:33;;;;;;;;;;;;;;;;;;;;;
2023/04/20 08:54:39;;;;;;;7.43;5.37;;;;;;;;;;4818584;29;20592;-26
2023/04/20 09:01:03;;;;;;;;;;;;;;;;;;;;;
2023/04/20 09:13:36;;;;;;;5.37;4.23;;;;;;;;;;4804929;29;20249;-28
2023/04/20 09:40:52;;;;;;;9.67;4.77;;;;;;;;;;4922855;29;20264;-29
2023/04/20 09:43:38;;;;;;;8.50;6.10;;;;;;;;;;4937119;29;20313;-28
2023/04/20 09:46:19;;;;;;;6.60;4.73;;;;;;;;;;5228791;23;20233;-38
2023/04/20 09:49:10;;;;;;;8.40;5.93;;;;;;;;;;4951538;29;20237;-38
2023/04/20 10:06:03;;;;;;;6.07;5.37;;;;;;;;;;4975645;23;20266;-39
2023/04/20 10:08:50;;;;;;;6.73;5.03;;;;;;;;;;4898443;29;20219;-36
2023/04/20 10:11:50;;;;;;;7.50;5.37;;;;;;;;;;4895433;29;20214;-34
2023/04/20 10:14:29;;;;;;;5.33;4.33;;;;;;;;;;4894932;29;20236;-35
2023/04/20 10:17:11;;;;;;;4.80;4.30;;;;;;;;;;4897524;29;20229;-37
2023/04/20 10:19:41;;;;;;;5.97;4.97;;;;;;;;;;5224406;23;20263;-27
2023/04/20 10:22:20;;;;;;;6.83;4.83;;;;;;;;;;4937071;29;20234;-30
2023/04/20 10:24:53;;;;;;;6.90;5.43;;;;;;;;;;4916914;29;20238;-28
2023/04/20 10:27:21;;;;;;;7.57;5.57;;;;;;;;;;4916546;29;20207;-31
2023/04/20 10:33:16;;;;;;;7.00;5.90;;;;;;;;;;4893081;29;20237;-36
2023/04/20 10:35:55;;;;;;;8.27;5.60;;;;;;;;;;4917819;29;20218;-38
2023/04/20 10:38:49;;;;;;;6.77;6.07;;;;;;;;;;4917920;29;20199;-34
2023/04/20 10:44:42;;;;;;;6.60;5.90;;;;;;;;;;4915181;29;20227;-34
2023/04/20 10:47:20;;;;;;;8.93;6.23;;;;;;;;;;4916111;29;20269;-37
2023/04/20 10:50:13;;;;;;;9.20;6.90;;;;;;;;;;4917233;29;20349;-37
2023/04/20 10:52:48;;;;;;;7.63;4.87;;;;;;;;;;4917002;29;20206;-35
2023/04/20 10:55:34;;;;;;;8.07;6.17;;;;;;;;;;4916636;29;20210;-39
2023/04/20 10:58:13;;;;;;;7.40;6.50;;;;;;;;;;4905641;29;20290;-36
2023/04/20 11:20:13;;;;;;;7.57;5.33;;;;;;;;;;4935461;29;20273;-27
2023/04/20 11:22:58;;;;;;;9.40;6.87;;;;;;;;;;4933654;29;20226;-28
2023/04/20 11:25:34;;;;;;;8.93;6.63;;;;;;;;;;4915488;29;20298;-29
2023/04/20 11:28:12;;;;;;;7.30;6.27;;;;;;;;;;4917186;29;20210;-28
2023/04/20 11:30:46;;;;;;;10.97;7.83;;;;;;;;;;4915289;29;20222;-29
2023/04/20 11:36:11;;;;;;;8.30;6.60;;;;;;;;;;4917315;29;20203;-28
2023/04/20 11:38:48;;;;;;;9.73;7.47;;;;;;;;;;4917265;29;20239;-30
2023/04/20 11:41:22;;;;;;;8.80;6.30;;;;;;;;;;4913062;29;20226;-29
2023/04/20 11:43:55;;;;;;;9.13;6.60;;;;;;;;;;4916239;29;20273;-26
2023/04/20 11:46:34;;;;;;;8.87;6.50;;;;;;;;;;4914472;29;20212;-30
2023/04/20 11:49:08;;;;;;;9.43;6.50;;;;;;;;;;4910169;29;20210;-31
2023/04/20 11:51:44;;;;;;;10.73;7.30;;;;;;;;;;4916674;29;20218;-29
2023/04/20 11:54:17;;;;;;;7.50;6.00;;;;;;;;;;4916575;29;20230;-30
2023/04/20 11:56:59;;;;;;;7.67;5.87;;;;;;;;;;4914723;29;20207;-30
2023/04/20 11:59:32;;;;;;;7.50;6.17;;;;;;;;;;4913408;29;20214;-28
2023/04/20 12:02:03;;;;;;;7.93;6.40;;;;;;;;;;4911305;29;20238;-27
2023/04/20 12:04:38;;;;;;;6.97;5.43;;;;;;;;;;4914013;29;20251;-29
2023/04/20 12:07:10;;;;;;;6.50;4.90;;;;;;;;;;4918400;29;20218;-30
2023/04/20 12:09:40;;;;;;;8.10;5.67;;;;;;;;;;4919930;29;20306;-27
2023/04/20 12:12:19;;;;;;;10.33;6.47;;;;;;;;;;4914602;29;20302;-31
2023/04/20 12:14:54;;;;;;;7.20;5.07;;;;;;;;;;4919849;29;20226;-28
2023/04/20 12:17:22;;;;;;;7.43;5.13;;;;;;;;;;4915296;29;20218;-27
2023/04/20 12:19:51;;;;;;;7.27;5.53;;;;;;;;;;4917058;29;20225;-28
2023/04/20 12:25:37;;;;;;;6.70;6.00;;;;;;;;;;4917340;29;20207;-30
2023/04/20 12:28:08;;;;;;;7.30;6.17;;;;;;;;;;4919745;29;20243;-29
2023/04/20 12:30:37;;;;;;;8.00;6.70;;;;;;;;;;4915839;29;20259;-28
2023/04/20 12:33:11;;;;;;;7.07;6.10;;;;;;;;;;4908530;29;20231;-27
2023/04/20 12:35:43;;;;;;;7.33;6.37;;;;;;;;;;4917417;29;20210;-28
2023/04/20 12:38:19;;;;;;;10.30;7.23;;;;;;;;;;4919765;29;20207;-27
2023/04/20 12:40:49;;;;;;;8.93;7.20;;;;;;;;;;4907313;29;20204;-30
2023/04/20 12:43:19;;;;;;;8.40;6.80;;;;;;;;;;4918372;29;20321;-29
2023/04/20 12:46:04;;;;;;;8.17;6.13;;;;;;;;;;4919606;29;20222;-29
2023/04/20 12:48:37;;;;;;;8.67;6.43;;;;;;;;;;4901454;29;20250;-30
2023/04/20 12:51:18;;;;;;;8.37;5.93;;;;;;;;;;4919226;29;20216;-30
2023/04/20 12:53:56;;;;;;;7.43;5.90;;;;;;;;;;4919288;29;20269;-28
2023/04/20 12:56:26;;;;;;;8.43;6.63;;;;;;;;;;4913929;29;20231;-28
2023/04/20 12:58:58;;;;;;;6.87;6.07;;;;;;;;;;4917656;29;20210;-28
2023/04/20 13:01:29;;;;;;;9.37;6.13;;;;;;;;;;4915329;29;20244;-28
2023/04/20 13:03:58;;;;;;;7.73;6.20;;;;;;;;;;4912063;29;20258;-26
2023/04/20 13:06:37;;;;;;;6.80;5.97;;;;;;;;;;4917264;29;20229;-29
2023/04/20 13:09:32;;;;;;;7.30;5.83;;;;;;;;;;5165662;23;20628;-31
2023/04/20 13:12:07;;;;;;;7.87;5.77;;;;;;;;;;4915677;29;20218;-35
2023/04/20 13:14:40;;;;;;;8.03;6.07;;;;;;;;;;4903036;29;20243;-33
2023/04/20 13:17:13;;;;;;;7.97;6.07;;;;;;;;;;4895228;29;20310;-34
2023/04/20 13:31:32;;;;;;;4.93;4.40;;;;;;;;;;5014190;23;20367;-27
2023/04/20 13:34:06;;;;;;;5.97;5.13;;;;;;;;;;4919338;29;20231;-27
2023/04/20 13:36:41;;;;;;;7.23;6.00;;;;;;;;;;4918471;29;20210;-29
2023/04/20 13:39:26;;;;;;;8.23;5.97;;;;;;;;;;4918598;29;20210;-29
2023/04/20 13:42:00;;;;;;;5.97;5.37;;;;;;;;;;4916249;29;20226;-28
2023/04/20 13:44:31;;;;;;;7.83;5.40;;;;;;;;;;4914588;29;20234;-29
2023/04/20 13:47:14;;;;;;;6.40;5.40;;;;;;;;;;4916416;29;20214;-29
2023/04/20 13:49:47;;;;;;;7.03;5.50;;;;;;;;;;4917907;29;20197;-29
2023/04/20 13:52:18;;;;;;;5.70;5.10;;;;;;;;;;4917870;29;20214;-29
2023/04/20 13:54:59;;;;;;;5.60;5.00;;;;;;;;;;4914642;29;20311;-28
2023/04/20 14:03:58;;;;;;;4.90;4.03;;;;;;;;;;4917803;29;20234;-37
2023/04/20 14:06:43;;;;;;;7.33;4.17;;;;;;;;;;5163011;23;20238;-28
2023/04/20 14:09:15;;;;;;;7.17;5.10;;;;;;;;;;4918399;29;20210;-28
2023/04/20 14:11:53;;;;;;;6.37;5.07;;;;;;;;;;4899442;29;20211;-29
2023/04/20 14:14:38;;;;;;;5.83;5.23;;;;;;;;;;4899515;29;20235;-26
2023/04/20 14:17:11;;;;;;;5.50;5.00;;;;;;;;;;4892244;29;20216;-28
2023/04/20 14:20:02;;;;;;;4.27;3.97;;;;;;;;;;4897827;29;20215;-28
2023/04/20 14:22:43;;;;;;;5.93;5.33;;;;;;;;;;4898025;29;20226;-29
2023/04/20 14:25:16;;;;;;;5.70;5.10;;;;;;;;;;4898964;29;20214;-29
2023/04/20 14:27:48;;;;;;;5.47;4.47;;;;;;;;;;4894887;29;20215;-26
2023/04/20 14:30:24;;;;;;;5.80;4.60;;;;;;;;;;4897577;29;20226;-28
2023/04/20 14:33:04;;;;;;;5.30;4.80;;;;;;;;;;4891418;29;20262;-27
2023/04/20 14:35:50;;;;;;;4.83;4.33;;;;;;;;;;4898097;29;20211;-28
2023/04/20 14:38:25;;;;;;;7.27;5.63;;;;;;;;;;4898557;29;20215;-26
2023/04/20 14:40:54;;;;;;;5.90;5.10;;;;;;;;;;4895277;29;20217;-28
2023/04/20 14:46:42;;;;;;;5.40;4.90;;;;;;;;;;4836603;29;20210;-26
2023/04/20 14:49:20;;;;;;;6.13;4.80;;;;;;;;;;4860734;29;20211;-29
2023/04/20 14:52:13;;;;;;;5.73;4.63;;;;;;;;;;4897813;29;20243;-26
2023/04/20 14:54:45;;;;;;;5.73;5.13;;;;;;;;;;4895772;29;20286;-29
2023/04/20 14:57:33;;;;;;;6.37;5.27;;;;;;;;;;4893646;29;20302;-28
2023/04/20 15:11:40;;;;;;;6.43;5.23;;;;;;;;;;4930240;29;20229;-38
2023/04/20 15:17:20;;;;;;;7.07;5.63;;;;;;;;;;5339024;23;20280;-34
2023/04/20 15:20:00;;;;;;;6.23;5.23;;;;;;;;;;4932919;29;20205;-36
2023/04/20 15:25:18;;;;;;;7.20;5.40;;;;;;;;;;4913699;29;20211;-39
2023/04/20 15:27:49;;;;;;;7.30;5.80;;;;;;;;;;4905169;29;20207;-35
2023/04/20 15:30:21;;;;;;;6.17;5.57;;;;;;;;;;4916103;29;20207;-35
2023/04/20 15:32:50;;;;;;;6.40;5.37;;;;;;;;;;4907943;29;20219;-35
2023/04/20 15:35:27;;;;;;;6.37;5.27;;;;;;;;;;4911948;29;20262;-38
2023/04/20 15:38:00;;;;;;;7.30;5.60;;;;;;;;;;4913912;29;20255;-37
2023/04/20 15:40:29;;;;;;;6.67;5.97;;;;;;;;;;4916723;29;20230;-35
2023/04/20 15:42:58;;;;;;;6.27;5.27;;;;;;;;;;4916648;29;20310;-34
2023/04/20 15:45:29;;;;;;;9.47;6.40;;;;;;;;;;4913874;29;20218;-37
2023/04/20 15:48:14;;;;;;;7.90;5.30;;;;;;;;;;4962646;23;20238;-30
2023/04/20 15:50:45;;;;;;;6.50;5.67;;;;;;;;;;4918653;29;20222;-27
2023/04/20 15:53:24;;;;;;;7.90;5.93;;;;;;;;;;4919351;29;20249;-27
2023/04/20 15:55:55;;;;;;;6.63;5.37;;;;;;;;;;4920080;29;20238;-29
2023/04/20 15:58:26;;;;;;;7.80;5.67;;;;;;;;;;4891790;29;20223;-28
2023/04/20 16:00:57;;;;;;;5.90;5.30;;;;;;;;;;4893864;29;20218;-27
2023/04/20 16:03:33;;;;;;;5.43;4.70;;;;;;;;;;5028594;23;20371;-37
2023/04/20 16:06:04;;;;;;;7.10;5.80;;;;;;;;;;4917344;29;20218;-37
2023/04/20 16:08:34;;;;;;;6.67;5.57;;;;;;;;;;4919674;29;20211;-39
2023/04/20 16:11:10;;;;;;;6.70;5.80;;;;;;;;;;4920631;29;20238;-36
2023/04/20 16:13:44;;;;;;;7.10;6.33;;;;;;;;;;4908254;29;20227;-39
2023/04/20 16:16:13;;;;;;;10.67;7.70;;;;;;;;;;4895200;29;20237;-38
2023/04/20 16:19:15;;;;;;;12.10;7.80;;;;;;;;;;4891299;29;20212;-34
2023/04/20 16:21:54;;;;;;;12.03;8.60;;;;;;;;;;4900649;29;20258;-39
2023/04/20 16:24:31;;;;;;;10.80;7.60;;;;;;;;;;4900895;29;20250;-38
2023/04/20 16:27:05;;;;;;;7.93;5.90;;;;;;;;;;4896974;29;20207;-38
2023/04/20 16:29:44;;;;;;;8.43;5.97;;;;;;;;;;4898568;29;20211;-40
2023/04/20 16:32:17;;;;;;;8.43;6.57;;;;;;;;;;4898768;29;20211;-32
2023/04/20 16:34:59;;;;;;;6.93;6.23;;;;;;;;;;4899171;29;20250;-35
2023/04/20 16:37:36;;;;;;;8.00;6.63;;;;;;;;;;4900880;29;20258;-36
2023/04/20 16:40:15;;;;;;;12.80;8.73;;;;;;;;;;4900902;29;20313;-35
2023/04/20 16:42:46;;;;;;;18.33;11.97;;;;;;;;;;4889084;29;20755;-39
2023/04/20 16:48:05;;;;;;;9.27;7.37;;;;;;;;;;4888839;29;20215;-34
2023/04/20 16:51:02;;;;;;;8.00;7.00;;;;;;;;;;4894875;29;20214;-38
2023/04/20 16:56:41;;;;;;;8.23;6.40;;;;;;;;;;4891933;29;20207;-38
2023/04/20 16:59:16;;;;;;;8.90;6.60;;;;;;;;;;4894450;29;20246;-34
2023/04/20 17:05:01;;;;;;;8.63;6.67;;;;;;;;;;4892009;29;20234;-35
2023/04/20 17:07:42;;;;;;;8.07;5.93;;;;;;;;;;4900068;29;20211;-34
2023/04/20 17:16:05;;;;;;;5.73;5.13;;;;;;;;;;4879204;29;20219;-32
2023/04/20 17:18:51;;;;;;;6.13;5.20;;;;;;;;;;4894091;29;20208;-34
2023/04/20 17:21:39;;;;;;;7.93;5.47;;;;;;;;;;4899650;29;20217;-36
2023/04/20 17:29:54;;;;;;;5.87;5.10;;;;;;;;;;4935908;29;20272;-36
2023/04/20 17:32:47;;;;;;;6.13;5.30;;;;;;;;;;4928486;29;20214;-35
2023/04/20 17:35:27;;;;;;;4.67;3.93;;;;;;;;;;4917984;29;20210;-34
2023/04/20 17:38:01;;;;;;;6.13;5.50;;;;;;;;;;4899674;29;20211;-33
2023/04/20 17:40:48;;;;;;;6.17;5.50;;;;;;;;;;4900763;29;20214;-38
2023/04/20 17:43:24;;;;;;;5.43;4.93;;;;;;;;;;4917574;29;20238;-41
2023/04/20 17:46:00;;;;;;;7.43;5.77;;;;;;;;;;4918606;29;20213;-35
2023/04/20 17:48:32;;;;;;;9.17;5.73;;;;;;;;;;4911190;29;20209;-37
2023/04/20 17:51:14;;;;;;;6.90;5.23;;;;;;;;;;4901014;29;20207;-36
2023/04/20 17:54:10;;;;;;;8.13;6.40;;;;;;;;;;4917001;29;20263;-33
2023/04/20 17:56:46;;;;;;;10.30;7.03;;;;;;;;;;4915655;29;20210;-37
2023/04/20 17:59:32;;;;;;;7.93;6.10;;;;;;;;;;4914026;29;20298;-37
2023/04/20 18:05:02;;;;;;;7.90;6.23;;;;;;;;;;4906553;29;20324;-32
2023/04/20 18:07:59;;;;;;;8.30;6.47;;;;;;;;;;4918258;29;20218;-37
2023/04/20 18:10:42;;;;;;;20.17;10.23;;;;;;;;;;4908394;29;20275;-32
2023/04/20 18:13:15;;;;;;;9.23;6.93;;;;;;;;;;4916565;29;20229;-35
2023/04/20 18:15:49;;;;;;;10.10;6.97;;;;;;;;;;4917654;29;20215;-35
2023/04/20 18:23:46;;;;;;;6.60;5.63;;;;;;;;;;4943281;29;20238;-34
2023/04/20 18:26:31;;;;;;;6.30;5.70;;;;;;;;;;4931397;29;20202;-35
2023/04/20 18:29:11;;;;;;;7.40;5.33;;;;;;;;;;4926311;29;20216;-41
2023/04/20 18:34:29;;;;;;;6.10;5.20;;;;;;;;;;4935659;29;20222;-34
2023/04/20 18:37:08;;;;;;;6.77;5.77;;;;;;;;;;4929091;29;20296;-32
2023/04/20 18:39:48;;;;;;;6.83;5.90;;;;;;;;;;4929154;29;20206;-35
2023/04/20 18:42:22;;;;;;;8.83;6.80;;;;;;;;;;4927289;29;20213;-34
2023/04/20 18:52:37;;;;;;;8.60;6.50;;;;;;;;;;4915669;29;20270;-32
2023/04/20 18:55:24;;;;;;;8.80;6.50;;;;;;;;;;4898766;29;20211;-32
2023/04/20 18:58:05;;;;;;;7.93;6.40;;;;;;;;;;4895034;29;20215;-33
2023/04/20 19:03:18;;;;;;;8.90;6.47;;;;;;;;;;4930081;29;20325;-36
2023/04/20 19:05:54;;;;;;;8.10;6.20;;;;;;;;;;4936392;29;20193;-36
2023/04/20 19:08:32;;;;;;;7.17;6.47;;;;;;;;;;4936447;29;20217;-38
2023/04/20 19:11:05;;;;;;;16.97;11.10;;;;;;;;;;4934973;29;20213;-31
2023/04/20 19:13:43;;;;;;;13.67;8.50;;;;;;;;;;4928660;29;20238;-30
2023/04/20 19:16:14;;;;;;;9.20;6.87;;;;;;;;;;4937948;29;20205;-36
2023/04/20 19:18:48;;;;;;;13.53;8.67;;;;;;;;;;4929490;29;20209;-38
2023/04/20 19:21:32;;;;;;;8.33;7.07;;;;;;;;;;4936652;29;20214;-32
2023/04/20 19:24:16;;;;;;;11.07;7.40;;;;;;;;;;5173727;23;20288;-37
2023/04/20 19:26:49;;;;;;;8.83;7.50;;;;;;;;;;4938069;29;20281;-36
2023/04/20 19:29:31;;;;;;;11.33;8.60;;;;;;;;;;4931257;29;20244;-37
2023/04/20 19:32:12;;;;;;;10.00;7.87;;;;;;;;;;4926424;29;20206;-38
2023/04/20 19:34:45;;;;;;;8.40;6.40;;;;;;;;;;4921231;29;20309;-32
2023/04/20 19:37:23;;;;;;;7.53;6.50;;;;;;;;;;4917888;29;20217;-33
2023/04/20 19:40:04;;;;;;;7.87;6.57;;;;;;;;;;4913762;29;20206;-37
2023/04/20 19:42:49;;;;;;;10.57;7.10;;;;;;;;;;4919372;29;20214;-35
2023/04/20 19:45:45;;;;;;;11.27;8.13;;;;;;;;;;4919965;29;20258;-34
2023/04/20 19:48:21;;;;;;;9.40;7.83;;;;;;;;;;4916334;29;20210;-35
2023/04/20 19:50:55;;;;;;;9.03;7.10;;;;;;;;;;4914798;29;20217;-36
2023/04/20 19:53:27;;;;;;;12.23;8.27;;;;;;;;;;4919461;29;20239;-39
2023/04/20 19:55:59;;;;;;;8.37;7.47;;;;;;;;;;4913084;29;20207;-37
2023/04/20 19:58:29;;;;;;;8.90;7.43;;;;;;;;;;4915219;29;20235;-38
2023/04/20 20:01:01;;;;;;;9.80;7.97;;;;;;;;;;4910099;29;20227;-36
2023/04/20 20:03:34;;;;;;;10.30;7.73;;;;;;;;;;4915866;29;20226;-34
2023/04/20 20:06:08;;;;;;;9.47;7.37;;;;;;;;;;4919818;29;20269;-35
2023/04/20 20:08:38;;;;;;;8.60;7.70;;;;;;;;;;4920320;29;20202;-32
2023/04/20 20:11:15;;;;;;;9.73;7.03;;;;;;;;;;4913903;29;20225;-38
2023/04/20 20:13:50;;;;;;;9.07;7.07;;;;;;;;;;4919717;29;20230;-37